sensor_id;sensor_type;location;lat;lon;timestamp;P1;durP1;ratioP1;P2;durP2;ratioP2
47103;SDS011;32853;52.164;5.400;2023-06-14T00:00:39;2.83;;;1.25;;
47103;SDS011;32853;52.164;5.400;2023-06-14T00:03:07;2.92;;;1.50;;
47103;SDS011;32853;52.164;5.400;2023-06-14T00:05:36;4.28;;;1.52;;
47103;SDS011;32853;52.164;5.400;2023-06-14T00:08:08;5.10;;;1.20;;
47103;SDS011;32853;52.164;5.400;2023-06-14T00:10:36;3.78;;;1.73;;
47103;SDS011;32853;52.164;5.400;2023-06-14T00:13:03;3.30;;;1.58;;
47103;SDS011;32853;52.164;5.400;2023-06-14T00:15:30;4.47;;;1.88;;
47103;SDS011;32853;52.164;5.400;2023-06-14T00:17:56;3.10;;;1.52;;
47103;SDS011;32853;52.164;5.400;2023-06-14T00:20:25;8.85;;;1.90;;
47103;SDS011;32853;52.164;5.400;2023-06-14T00:22:51;4.40;;;1.23;;
47103;SDS011;32853;52.164;5.400;2023-06-14T00:25:17;2.75;;;1.40;;
47103;SDS011;32853;52.164;5.400;2023-06-14T00:27:42;8.15;;;1.50;;
47103;SDS011;32853;52.164;5.400;2023-06-14T00:30:07;6.78;;;1.60;;
47103;SDS011;32853;52.164;5.400;2023-06-14T00:32:34;3.08;;;1.92;;
47103;SDS011;32853;52.164;5.400;2023-06-14T00:35:01;7.95;;;2.30;;
47103;SDS011;32853;52.164;5.400;2023-06-14T00:37:26;4.10;;;1.02;;
47103;SDS011;32853;52.164;5.400;2023-06-14T00:39:51;1.90;;;1.25;;
47103;SDS011;32853;52.164;5.400;2023-06-14T00:42:23;3.88;;;1.30;;
47103;SDS011;32853;52.164;5.400;2023-06-14T00:44:50;7.72;;;1.60;;
47103;SDS011;32853;52.164;5.400;2023-06-14T00:47:15;6.00;;;1.30;;
47103;SDS011;32853;52.164;5.400;2023-06-14T00:49:45;3.47;;;1.58;;
47103;SDS011;32853;52.164;5.400;2023-06-14T00:52:22;3.42;;;1.42;;
47103;SDS011;32853;52.164;5.400;2023-06-14T00:54:49;4.20;;;1.67;;
47103;SDS011;32853;52.164;5.400;2023-06-14T00:57:14;10.10;;;2.30;;
47103;SDS011;32853;52.164;5.400;2023-06-14T00:59:47;8.57;;;1.35;;
47103;SDS011;32853;52.164;5.400;2023-06-14T01:02:13;4.65;;;1.52;;
47103;SDS011;32853;52.164;5.400;2023-06-14T01:04:43;4.63;;;1.33;;
47103;SDS011;32853;52.164;5.400;2023-06-14T01:15:20;8.38;;;1.60;;
47103;SDS011;32853;52.164;5.400;2023-06-14T01:17:46;9.27;;;1.40;;
47103;SDS011;32853;52.164;5.400;2023-06-14T01:20:16;4.05;;;1.55;;
47103;SDS011;32853;52.164;5.400;2023-06-14T01:22:52;3.08;;;1.23;;
47103;SDS011;32853;52.164;5.400;2023-06-14T01:28:02;13.52;;;1.50;;
47103;SDS011;32853;52.164;5.400;2023-06-14T01:30:35;8.27;;;1.60;;
47103;SDS011;32853;52.164;5.400;2023-06-14T01:33:14;4.75;;;1.52;;
47103;SDS011;32853;52.164;5.400;2023-06-14T01:35:44;3.45;;;1.40;;
47103;SDS011;32853;52.164;5.400;2023-06-14T01:38:13;7.18;;;1.30;;
47103;SDS011;32853;52.164;5.400;2023-06-14T01:40:40;2.20;;;1.27;;
47103;SDS011;32853;52.164;5.400;2023-06-14T01:43:07;5.30;;;2.45;;
47103;SDS011;32853;52.164;5.400;2023-06-14T01:45:33;7.05;;;1.38;;
47103;SDS011;32853;52.164;5.400;2023-06-14T01:48:00;3.67;;;1.27;;
47103;SDS011;32853;52.164;5.400;2023-06-14T01:50:29;3.15;;;1.23;;
47103;SDS011;32853;52.164;5.400;2023-06-14T01:52:56;3.20;;;1.52;;
47103;SDS011;32853;52.164;5.400;2023-06-14T01:55:21;3.03;;;0.90;;
47103;SDS011;32853;52.164;5.400;2023-06-14T01:57:47;2.70;;;1.25;;
47103;SDS011;32853;52.164;5.400;2023-06-14T02:00:13;10.73;;;1.63;;
47103;SDS011;32853;52.164;5.400;2023-06-14T02:02:41;8.43;;;1.85;;
47103;SDS011;32853;52.164;5.400;2023-06-14T02:05:06;7.18;;;1.50;;
47103;SDS011;32853;52.164;5.400;2023-06-14T02:07:32;6.47;;;1.40;;
47103;SDS011;32853;52.164;5.400;2023-06-14T02:09:58;9.35;;;2.75;;
47103;SDS011;32853;52.164;5.400;2023-06-14T02:12:24;6.32;;;1.80;;
47103;SDS011;32853;52.164;5.400;2023-06-14T02:14:49;5.82;;;1.30;;
47103;SDS011;32853;52.164;5.400;2023-06-14T02:17:14;3.00;;;1.42;;
47103;SDS011;32853;52.164;5.400;2023-06-14T02:19:41;7.15;;;1.17;;
47103;SDS011;32853;52.164;5.400;2023-06-14T02:22:07;5.00;;;1.58;;
47103;SDS011;32853;52.164;5.400;2023-06-14T02:24:32;3.90;;;1.55;;
47103;SDS011;32853;52.164;5.400;2023-06-14T02:26:57;7.05;;;1.23;;
47103;SDS011;32853;52.164;5.400;2023-06-14T02:29:23;6.95;;;1.67;;
47103;SDS011;32853;52.164;5.400;2023-06-14T02:31:48;1.83;;;0.98;;
47103;SDS011;32853;52.164;5.400;2023-06-14T02:34:14;5.90;;;1.38;;
47103;SDS011;32853;52.164;5.400;2023-06-14T02:36:41;5.18;;;1.27;;
47103;SDS011;32853;52.164;5.400;2023-06-14T02:39:10;4.38;;;1.35;;
47103;SDS011;32853;52.164;5.400;2023-06-14T02:41:36;4.50;;;1.38;;
47103;SDS011;32853;52.164;5.400;2023-06-14T02:44:03;4.53;;;1.00;;
47103;SDS011;32853;52.164;5.400;2023-06-14T02:46:29;7.32;;;1.33;;
47103;SDS011;32853;52.164;5.400;2023-06-14T02:48:54;5.43;;;2.25;;
47103;SDS011;32853;52.164;5.400;2023-06-14T02:51:19;5.25;;;1.52;;
47103;SDS011;32853;52.164;5.400;2023-06-14T02:53:44;9.70;;;3.05;;
47103;SDS011;32853;52.164;5.400;2023-06-14T02:56:10;5.85;;;1.33;;
47103;SDS011;32853;52.164;5.400;2023-06-14T02:58:37;9.95;;;1.67;;
47103;SDS011;32853;52.164;5.400;2023-06-14T03:01:03;10.95;;;1.63;;
47103;SDS011;32853;52.164;5.400;2023-06-14T03:03:30;6.30;;;1.17;;
47103;SDS011;32853;52.164;5.400;2023-06-14T03:05:56;2.85;;;1.08;;
47103;SDS011;32853;52.164;5.400;2023-06-14T03:08:21;4.40;;;1.27;;
47103;SDS011;32853;52.164;5.400;2023-06-14T03:10:51;2.50;;;1.08;;
47103;SDS011;32853;52.164;5.400;2023-06-14T03:13:16;4.60;;;1.17;;
47103;SDS011;32853;52.164;5.400;2023-06-14T03:15:42;6.40;;;1.20;;
47103;SDS011;32853;52.164;5.400;2023-06-14T03:18:08;11.60;;;1.30;;
47103;SDS011;32853;52.164;5.400;2023-06-14T03:20:37;2.72;;;1.25;;
47103;SDS011;32853;52.164;5.400;2023-06-14T03:23:03;13.10;;;1.65;;
47103;SDS011;32853;52.164;5.400;2023-06-14T03:25:29;7.25;;;1.55;;
47103;SDS011;32853;52.164;5.400;2023-06-14T03:27:55;8.57;;;1.23;;
47103;SDS011;32853;52.164;5.400;2023-06-14T03:30:20;4.13;;;1.83;;
47103;SDS011;32853;52.164;5.400;2023-06-14T03:32:46;6.93;;;1.17;;
47103;SDS011;32853;52.164;5.400;2023-06-14T03:35:11;2.83;;;1.52;;
47103;SDS011;32853;52.164;5.400;2023-06-14T03:43:12;10.27;;;1.33;;
47103;SDS011;32853;52.164;5.400;2023-06-14T03:45:44;4.15;;;1.50;;
47103;SDS011;32853;52.164;5.400;2023-06-14T03:48:09;5.63;;;1.33;;
47103;SDS011;32853;52.164;5.400;2023-06-14T03:50:35;2.20;;;1.15;;
47103;SDS011;32853;52.164;5.400;2023-06-14T03:53:03;4.18;;;1.90;;
47103;SDS011;32853;52.164;5.400;2023-06-14T03:55:31;3.88;;;1.80;;
47103;SDS011;32853;52.164;5.400;2023-06-14T03:58:00;3.58;;;1.20;;
47103;SDS011;32853;52.164;5.400;2023-06-14T04:00:25;2.03;;;1.60;;
47103;SDS011;32853;52.164;5.400;2023-06-14T04:02:54;4.82;;;1.98;;
47103;SDS011;32853;52.164;5.400;2023-06-14T04:05:24;8.93;;;1.45;;
47103;SDS011;32853;52.164;5.400;2023-06-14T04:07:55;3.15;;;1.80;;
47103;SDS011;32853;52.164;5.400;2023-06-14T04:10:23;4.30;;;1.60;;
47103;SDS011;32853;52.164;5.400;2023-06-14T04:12:52;3.50;;;1.63;;
47103;SDS011;32853;52.164;5.400;2023-06-14T04:15:18;6.07;;;1.27;;
47103;SDS011;32853;52.164;5.400;2023-06-14T04:17:47;6.53;;;1.55;;
47103;SDS011;32853;52.164;5.400;2023-06-14T04:20:22;3.50;;;1.30;;
47103;SDS011;32853;52.164;5.400;2023-06-14T04:22:52;2.38;;;1.20;;
47103;SDS011;32853;52.164;5.400;2023-06-14T04:25:19;4.40;;;1.30;;
47103;SDS011;32853;52.164;5.400;2023-06-14T04:30:14;4.55;;;1.42;;
47103;SDS011;32853;52.164;5.400;2023-06-14T04:32:40;7.40;;;1.20;;
47103;SDS011;32853;52.164;5.400;2023-06-14T04:35:07;7.85;;;1.40;;
47103;SDS011;32853;52.164;5.400;2023-06-14T04:37:33;6.68;;;1.48;;
47103;SDS011;32853;52.164;5.400;2023-06-14T04:39:59;11.38;;;2.22;;
47103;SDS011;32853;52.164;5.400;2023-06-14T04:44:58;3.20;;;1.33;;
47103;SDS011;32853;52.164;5.400;2023-06-14T04:47:23;6.68;;;1.45;;
47103;SDS011;32853;52.164;5.400;2023-06-14T04:49:58;9.02;;;1.70;;
47103;SDS011;32853;52.164;5.400;2023-06-14T04:52:32;4.20;;;1.40;;
47103;SDS011;32853;52.164;5.400;2023-06-14T04:54:58;4.00;;;1.42;;
47103;SDS011;32853;52.164;5.400;2023-06-14T04:57:32;2.70;;;1.15;;
47103;SDS011;32853;52.164;5.400;2023-06-14T04:59:58;14.10;;;1.87;;
47103;SDS011;32853;52.164;5.400;2023-06-14T05:02:26;5.50;;;1.80;;
47103;SDS011;32853;52.164;5.400;2023-06-14T05:04:53;7.07;;;1.52;;
47103;SDS011;32853;52.164;5.400;2023-06-14T05:07:33;7.45;;;1.67;;
47103;SDS011;32853;52.164;5.400;2023-06-14T05:12:39;3.75;;;1.67;;
47103;SDS011;32853;52.164;5.400;2023-06-14T05:15:04;5.18;;;1.35;;
47103;SDS011;32853;52.164;5.400;2023-06-14T05:17:39;2.65;;;1.35;;
47103;SDS011;32853;52.164;5.400;2023-06-14T05:20:18;2.28;;;1.40;;
47103;SDS011;32853;52.164;5.400;2023-06-14T05:25:40;5.35;;;1.92;;
47103;SDS011;32853;52.164;5.400;2023-06-14T05:28:19;5.40;;;1.73;;
47103;SDS011;32853;52.164;5.400;2023-06-14T05:34:16;5.38;;;1.55;;
47103;SDS011;32853;52.164;5.400;2023-06-14T05:43:25;2.63;;;1.38;;
47103;SDS011;32853;52.164;5.400;2023-06-14T05:48:55;6.45;;;2.50;;
47103;SDS011;32853;52.164;5.400;2023-06-14T05:51:21;2.47;;;1.33;;
47103;SDS011;32853;52.164;5.400;2023-06-14T05:53:47;5.78;;;1.58;;
47103;SDS011;32853;52.164;5.400;2023-06-14T05:56:13;3.50;;;1.38;;
47103;SDS011;32853;52.164;5.400;2023-06-14T05:58:40;4.07;;;1.40;;
47103;SDS011;32853;52.164;5.400;2023-06-14T06:01:06;4.57;;;1.10;;
47103;SDS011;32853;52.164;5.400;2023-06-14T06:03:31;4.30;;;2.03;;
47103;SDS011;32853;52.164;5.400;2023-06-14T06:05:57;5.90;;;2.00;;
47103;SDS011;32853;52.164;5.400;2023-06-14T06:08:22;3.05;;;1.38;;
47103;SDS011;32853;52.164;5.400;2023-06-14T06:10:49;14.05;;;1.65;;
47103;SDS011;32853;52.164;5.400;2023-06-14T06:13:15;2.45;;;1.52;;
47103;SDS011;32853;52.164;5.400;2023-06-14T06:15:40;5.78;;;1.95;;
47103;SDS011;32853;52.164;5.400;2023-06-14T06:18:06;6.38;;;1.88;;
47103;SDS011;32853;52.164;5.400;2023-06-14T06:20:31;2.30;;;1.27;;
47103;SDS011;32853;52.164;5.400;2023-06-14T06:22:57;2.83;;;1.15;;
47103;SDS011;32853;52.164;5.400;2023-06-14T06:25:23;2.88;;;1.55;;
47103;SDS011;32853;52.164;5.400;2023-06-14T06:27:51;13.98;;;1.42;;
47103;SDS011;32853;52.164;5.400;2023-06-14T06:30:17;7.43;;;1.48;;
47103;SDS011;32853;52.164;5.400;2023-06-14T06:32:48;3.28;;;1.48;;
47103;SDS011;32853;52.164;5.400;2023-06-14T06:35:13;3.05;;;1.48;;
47103;SDS011;32853;52.164;5.400;2023-06-14T06:37:39;4.88;;;1.77;;
47103;SDS011;32853;52.164;5.400;2023-06-14T06:40:06;6.15;;;1.50;;
47103;SDS011;32853;52.164;5.400;2023-06-14T06:42:32;6.25;;;1.65;;
47103;SDS011;32853;52.164;5.400;2023-06-14T06:44:58;4.57;;;1.30;;
47103;SDS011;32853;52.164;5.400;2023-06-14T06:47:23;4.85;;;1.40;;
47103;SDS011;32853;52.164;5.400;2023-06-14T06:49:53;10.50;;;1.40;;
47103;SDS011;32853;52.164;5.400;2023-06-14T06:52:18;4.60;;;1.48;;
47103;SDS011;32853;52.164;5.400;2023-06-14T06:54:43;3.15;;;1.92;;
47103;SDS011;32853;52.164;5.400;2023-06-14T06:57:11;10.57;;;1.85;;
47103;SDS011;32853;52.164;5.400;2023-06-14T06:59:37;5.45;;;1.40;;
47103;SDS011;32853;52.164;5.400;2023-06-14T07:02:02;7.22;;;1.90;;
47103;SDS011;32853;52.164;5.400;2023-06-14T07:04:37;6.07;;;1.95;;
47103;SDS011;32853;52.164;5.400;2023-06-14T07:07:05;4.93;;;1.67;;
47103;SDS011;32853;52.164;5.400;2023-06-14T07:11:58;9.75;;;1.52;;
47103;SDS011;32853;52.164;5.400;2023-06-14T07:14:24;3.10;;;1.20;;
47103;SDS011;32853;52.164;5.400;2023-06-14T07:16:49;8.00;;;1.67;;
47103;SDS011;32853;52.164;5.400;2023-06-14T07:19:15;4.85;;;1.23;;
47103;SDS011;32853;52.164;5.400;2023-06-14T07:21:40;4.78;;;1.63;;
47103;SDS011;32853;52.164;5.400;2023-06-14T07:24:06;3.17;;;1.65;;
47103;SDS011;32853;52.164;5.400;2023-06-14T07:26:37;5.07;;;1.40;;
47103;SDS011;32853;52.164;5.400;2023-06-14T07:29:02;4.65;;;1.38;;
47103;SDS011;32853;52.164;5.400;2023-06-14T07:31:29;3.72;;;2.30;;
47103;SDS011;32853;52.164;5.400;2023-06-14T07:34:10;4.40;;;1.25;;
47103;SDS011;32853;52.164;5.400;2023-06-14T07:36:35;8.07;;;1.45;;
47103;SDS011;32853;52.164;5.400;2023-06-14T07:39:02;6.10;;;1.63;;
47103;SDS011;32853;52.164;5.400;2023-06-14T07:41:28;3.70;;;0.80;;
47103;SDS011;32853;52.164;5.400;2023-06-14T07:43:54;10.65;;;1.33;;
47103;SDS011;32853;52.164;5.400;2023-06-14T07:46:20;6.55;;;1.15;;
47103;SDS011;32853;52.164;5.400;2023-06-14T07:48:45;2.00;;;0.98;;
47103;SDS011;32853;52.164;5.400;2023-06-14T07:51:10;3.70;;;0.82;;
47103;SDS011;32853;52.164;5.400;2023-06-14T07:53:36;17.02;;;1.02;;
47103;SDS011;32853;52.164;5.400;2023-06-14T07:56:01;2.13;;;1.10;;
47103;SDS011;32853;52.164;5.400;2023-06-14T07:58:32;4.25;;;0.88;;
47103;SDS011;32853;52.164;5.400;2023-06-14T08:01:04;3.70;;;1.00;;
47103;SDS011;32853;52.164;5.400;2023-06-14T08:03:33;6.95;;;1.13;;
47103;SDS011;32853;52.164;5.400;2023-06-14T08:06:11;5.10;;;2.28;;
47103;SDS011;32853;52.164;5.400;2023-06-14T08:08:45;2.88;;;1.50;;
47103;SDS011;32853;52.164;5.400;2023-06-14T08:11:19;6.90;;;2.10;;
47103;SDS011;32853;52.164;5.400;2023-06-14T08:28:04;1.67;;;0.93;;
47103;SDS011;32853;52.164;5.400;2023-06-14T08:30:50;1.50;;;0.70;;
47103;SDS011;32853;52.164;5.400;2023-06-14T08:33:16;2.70;;;1.45;;
47103;SDS011;32853;52.164;5.400;2023-06-14T08:35:41;3.85;;;0.82;;
47103;SDS011;32853;52.164;5.400;2023-06-14T08:38:07;2.28;;;0.70;;
47103;SDS011;32853;52.164;5.400;2023-06-14T08:40:32;3.17;;;0.73;;
47103;SDS011;32853;52.164;5.400;2023-06-14T08:43:02;2.58;;;0.60;;
47103;SDS011;32853;52.164;5.400;2023-06-14T08:45:27;6.88;;;0.70;;
47103;SDS011;32853;52.164;5.400;2023-06-14T08:47:59;2.38;;;0.80;;
47103;SDS011;32853;52.164;5.400;2023-06-14T08:50:40;5.55;;;1.70;;
47103;SDS011;32853;52.164;5.400;2023-06-14T08:53:06;3.97;;;0.77;;
47103;SDS011;32853;52.164;5.400;2023-06-14T08:55:38;9.27;;;1.10;;
47103;SDS011;32853;52.164;5.400;2023-06-14T08:58:04;1.77;;;0.80;;
47103;SDS011;32853;52.164;5.400;2023-06-14T09:00:30;2.75;;;0.60;;
47103;SDS011;32853;52.164;5.400;2023-06-14T09:02:57;1.00;;;0.60;;
47103;SDS011;32853;52.164;5.400;2023-06-14T09:05:23;2.33;;;0.52;;
47103;SDS011;32853;52.164;5.400;2023-06-14T09:07:49;8.35;;;0.60;;
47103;SDS011;32853;52.164;5.400;2023-06-14T09:10:15;0.95;;;0.45;;
47103;SDS011;32853;52.164;5.400;2023-06-14T09:12:41;2.35;;;0.77;;
47103;SDS011;32853;52.164;5.400;2023-06-14T09:15:09;4.90;;;0.77;;
47103;SDS011;32853;52.164;5.400;2023-06-14T09:17:35;2.38;;;0.60;;
47103;SDS011;32853;52.164;5.400;2023-06-14T09:20:04;1.38;;;0.50;;
47103;SDS011;32853;52.164;5.400;2023-06-14T09:22:38;3.03;;;0.60;;
47103;SDS011;32853;52.164;5.400;2023-06-14T09:25:04;2.85;;;0.43;;
47103;SDS011;32853;52.164;5.400;2023-06-14T09:27:31;1.67;;;0.90;;
47103;SDS011;32853;52.164;5.400;2023-06-14T09:29:57;6.70;;;0.60;;
47103;SDS011;32853;52.164;5.400;2023-06-14T09:32:23;3.20;;;0.60;;
47103;SDS011;32853;52.164;5.400;2023-06-14T09:34:48;3.70;;;0.85;;
47103;SDS011;32853;52.164;5.400;2023-06-14T09:37:27;2.20;;;0.65;;
47103;SDS011;32853;52.164;5.400;2023-06-14T09:39:54;4.90;;;0.80;;
47103;SDS011;32853;52.164;5.400;2023-06-14T09:42:22;3.70;;;0.52;;
47103;SDS011;32853;52.164;5.400;2023-06-14T09:44:52;2.83;;;0.50;;
47103;SDS011;32853;52.164;5.400;2023-06-14T09:49:48;0.80;;;0.40;;
47103;SDS011;32853;52.164;5.400;2023-06-14T09:52:24;1.80;;;0.70;;
47103;SDS011;32853;52.164;5.400;2023-06-14T09:54:51;2.00;;;0.75;;
47103;SDS011;32853;52.164;5.400;2023-06-14T09:57:27;5.93;;;0.60;;
47103;SDS011;32853;52.164;5.400;2023-06-14T09:59:56;2.70;;;0.70;;
47103;SDS011;32853;52.164;5.400;2023-06-14T10:02:26;1.73;;;0.75;;
47103;SDS011;32853;52.164;5.400;2023-06-14T10:07:42;4.75;;;0.77;;
47103;SDS011;32853;52.164;5.400;2023-06-14T10:10:35;3.63;;;0.60;;
47103;SDS011;32853;52.164;5.400;2023-06-14T10:13:04;1.33;;;0.52;;
47103;SDS011;32853;52.164;5.400;2023-06-14T10:15:41;2.78;;;0.50;;
47103;SDS011;32853;52.164;5.400;2023-06-14T10:21:08;3.53;;;0.60;;
47103;SDS011;32853;52.164;5.400;2023-06-14T10:23:55;4.38;;;0.80;;
47103;SDS011;32853;52.164;5.400;2023-06-14T10:26:28;1.35;;;0.50;;
47103;SDS011;32853;52.164;5.400;2023-06-14T10:29:01;2.30;;;0.77;;
47103;SDS011;32853;52.164;5.400;2023-06-14T10:31:42;4.13;;;0.77;;
47103;SDS011;32853;52.164;5.400;2023-06-14T10:37:01;2.45;;;0.40;;
47103;SDS011;32853;52.164;5.400;2023-06-14T10:39:28;1.13;;;0.60;;
47103;SDS011;32853;52.164;5.400;2023-06-14T10:41:55;1.95;;;0.52;;
47103;SDS011;32853;52.164;5.400;2023-06-14T10:46:54;4.75;;;1.08;;
47103;SDS011;32853;52.164;5.400;2023-06-14T10:49:20;1.48;;;0.60;;
47103;SDS011;32853;52.164;5.400;2023-06-14T10:52:06;3.67;;;0.68;;
47103;SDS011;32853;52.164;5.400;2023-06-14T10:55:01;1.27;;;0.60;;
47103;SDS011;32853;52.164;5.400;2023-06-14T10:57:37;1.95;;;0.50;;
47103;SDS011;32853;52.164;5.400;2023-06-14T11:00:15;3.13;;;0.77;;
47103;SDS011;32853;52.164;5.400;2023-06-14T11:05:59;4.88;;;0.40;;
47103;SDS011;32853;52.164;5.400;2023-06-14T11:08:58;1.10;;;0.50;;
47103;SDS011;32853;52.164;5.400;2023-06-14T11:11:45;3.08;;;0.52;;
47103;SDS011;32853;52.164;5.400;2023-06-14T11:14:15;1.63;;;0.50;;
47103;SDS011;32853;52.164;5.400;2023-06-14T11:16:41;0.68;;;0.47;;
47103;SDS011;32853;52.164;5.400;2023-06-14T11:19:15;3.47;;;0.77;;
47103;SDS011;32853;52.164;5.400;2023-06-14T11:21:47;1.67;;;0.60;;
47103;SDS011;32853;52.164;5.400;2023-06-14T11:29:21;3.45;;;0.57;;
47103;SDS011;32853;52.164;5.400;2023-06-14T11:31:50;1.05;;;0.50;;
47103;SDS011;32853;52.164;5.400;2023-06-14T11:46:52;5.38;;;1.38;;
47103;SDS011;32853;52.164;5.400;2023-06-14T11:49:23;6.55;;;0.85;;
47103;SDS011;32853;52.164;5.400;2023-06-14T11:51:48;1.17;;;0.57;;
47103;SDS011;32853;52.164;5.400;2023-06-14T11:54:14;3.28;;;0.80;;
47103;SDS011;32853;52.164;5.400;2023-06-14T11:56:40;1.27;;;0.52;;
47103;SDS011;32853;52.164;5.400;2023-06-14T11:59:05;1.38;;;0.60;;
47103;SDS011;32853;52.164;5.400;2023-06-14T12:01:31;7.32;;;0.82;;
47103;SDS011;32853;52.164;5.400;2023-06-14T12:04:04;6.57;;;0.68;;
47103;SDS011;32853;52.164;5.400;2023-06-14T12:06:30;1.08;;;0.50;;
47103;SDS011;32853;52.164;5.400;2023-06-14T12:09:03;11.80;;;2.88;;
47103;SDS011;32853;52.164;5.400;2023-06-14T12:11:32;0.85;;;0.60;;
47103;SDS011;32853;52.164;5.400;2023-06-14T12:13:59;1.50;;;0.60;;
47103;SDS011;32853;52.164;5.400;2023-06-14T12:16:29;2.53;;;0.65;;
47103;SDS011;32853;52.164;5.400;2023-06-14T12:18:56;4.43;;;0.68;;
47103;SDS011;32853;52.164;5.400;2023-06-14T12:21:30;2.58;;;0.70;;
47103;SDS011;32853;52.164;5.400;2023-06-14T12:23:58;1.45;;;0.60;;
47103;SDS011;32853;52.164;5.400;2023-06-14T12:26:23;6.03;;;0.60;;
47103;SDS011;32853;52.164;5.400;2023-06-14T12:28:56;1.50;;;0.50;;
47103;SDS011;32853;52.164;5.400;2023-06-14T12:33:49;1.88;;;0.70;;
47103;SDS011;32853;52.164;5.400;2023-06-14T12:36:27;1.10;;;0.43;;
47103;SDS011;32853;52.164;5.400;2023-06-14T12:38:59;2.13;;;0.77;;
47103;SDS011;32853;52.164;5.400;2023-06-14T12:41:26;3.92;;;0.90;;
47103;SDS011;32853;52.164;5.400;2023-06-14T12:43:54;3.90;;;1.20;;
47103;SDS011;32853;52.164;5.400;2023-06-14T12:46:23;1.20;;;0.80;;
47103;SDS011;32853;52.164;5.400;2023-06-14T12:48:49;1.55;;;0.57;;
47103;SDS011;32853;52.164;5.400;2023-06-14T12:51:15;1.73;;;0.60;;
47103;SDS011;32853;52.164;5.400;2023-06-14T12:53:40;6.57;;;0.55;;
47103;SDS011;32853;52.164;5.400;2023-06-14T12:58:36;5.13;;;1.30;;
47103;SDS011;32853;52.164;5.400;2023-06-14T13:01:01;7.70;;;0.82;;
47103;SDS011;32853;52.164;5.400;2023-06-14T13:03:29;10.10;;;0.73;;
47103;SDS011;32853;52.164;5.400;2023-06-14T13:05:54;9.38;;;1.02;;
47103;SDS011;32853;52.164;5.400;2023-06-14T13:08:31;6.75;;;0.65;;
47103;SDS011;32853;52.164;5.400;2023-06-14T13:11:12;7.15;;;0.60;;
47103;SDS011;32853;52.164;5.400;2023-06-14T13:13:41;1.77;;;0.73;;
47103;SDS011;32853;52.164;5.400;2023-06-14T13:16:06;3.85;;;1.23;;
47103;SDS011;32853;52.164;5.400;2023-06-14T13:18:33;2.60;;;0.55;;
47103;SDS011;32853;52.164;5.400;2023-06-14T13:21:01;2.47;;;0.50;;
47103;SDS011;32853;52.164;5.400;2023-06-14T13:23:26;1.40;;;0.52;;
47103;SDS011;32853;52.164;5.400;2023-06-14T13:26:01;1.30;;;0.52;;
47103;SDS011;32853;52.164;5.400;2023-06-14T13:28:41;2.60;;;0.47;;
47103;SDS011;32853;52.164;5.400;2023-06-14T13:31:12;4.43;;;0.90;;
47103;SDS011;32853;52.164;5.400;2023-06-14T13:33:56;5.75;;;0.60;;
47103;SDS011;32853;52.164;5.400;2023-06-14T13:36:21;3.70;;;0.70;;
47103;SDS011;32853;52.164;5.400;2023-06-14T13:38:47;1.75;;;0.50;;
47103;SDS011;32853;52.164;5.400;2023-06-14T13:41:16;1.80;;;0.63;;
47103;SDS011;32853;52.164;5.400;2023-06-14T13:43:45;2.40;;;0.50;;
47103;SDS011;32853;52.164;5.400;2023-06-14T13:46:15;3.92;;;1.02;;
47103;SDS011;32853;52.164;5.400;2023-06-14T13:48:41;0.88;;;0.40;;
47103;SDS011;32853;52.164;5.400;2023-06-14T13:51:07;1.15;;;0.77;;
47103;SDS011;32853;52.164;5.400;2023-06-14T13:53:33;2.45;;;0.65;;
47103;SDS011;32853;52.164;5.400;2023-06-14T13:55:58;3.60;;;0.70;;
47103;SDS011;32853;52.164;5.400;2023-06-14T13:58:23;1.83;;;0.80;;
47103;SDS011;32853;52.164;5.400;2023-06-14T14:00:49;1.88;;;0.50;;
47103;SDS011;32853;52.164;5.400;2023-06-14T14:03:28;2.95;;;0.80;;
47103;SDS011;32853;52.164;5.400;2023-06-14T14:05:55;5.30;;;0.63;;
47103;SDS011;32853;52.164;5.400;2023-06-14T14:08:24;1.60;;;0.75;;
47103;SDS011;32853;52.164;5.400;2023-06-14T14:13:19;2.78;;;0.77;;
47103;SDS011;32853;52.164;5.400;2023-06-14T14:18:16;0.70;;;0.50;;
47103;SDS011;32853;52.164;5.400;2023-06-14T14:20:42;1.70;;;0.70;;
47103;SDS011;32853;52.164;5.400;2023-06-14T14:23:07;0.93;;;0.45;;
47103;SDS011;32853;52.164;5.400;2023-06-14T14:25:32;9.82;;;0.80;;
47103;SDS011;32853;52.164;5.400;2023-06-14T14:27:58;1.23;;;0.70;;
47103;SDS011;32853;52.164;5.400;2023-06-14T14:30:23;1.35;;;0.77;;
47103;SDS011;32853;52.164;5.400;2023-06-14T14:32:49;7.72;;;2.92;;
47103;SDS011;32853;52.164;5.400;2023-06-14T14:35:18;2.05;;;0.57;;
47103;SDS011;32853;52.164;5.400;2023-06-14T14:37:44;3.58;;;0.45;;
47103;SDS011;32853;52.164;5.400;2023-06-14T14:40:10;1.73;;;0.40;;
47103;SDS011;32853;52.164;5.400;2023-06-14T14:42:36;0.93;;;0.50;;
47103;SDS011;32853;52.164;5.400;2023-06-14T14:45:02;1.98;;;0.80;;
47103;SDS011;32853;52.164;5.400;2023-06-14T14:47:27;2.08;;;0.90;;
47103;SDS011;32853;52.164;5.400;2023-06-14T14:49:53;4.38;;;0.65;;
47103;SDS011;32853;52.164;5.400;2023-06-14T14:52:18;2.90;;;0.70;;
47103;SDS011;32853;52.164;5.400;2023-06-14T14:54:43;2.90;;;0.60;;
47103;SDS011;32853;52.164;5.400;2023-06-14T14:57:09;1.65;;;0.60;;
47103;SDS011;32853;52.164;5.400;2023-06-14T14:59:35;3.20;;;0.50;;
47103;SDS011;32853;52.164;5.400;2023-06-14T15:02:01;1.95;;;0.60;;
47103;SDS011;32853;52.164;5.400;2023-06-14T15:04:26;2.47;;;0.60;;
47103;SDS011;32853;52.164;5.400;2023-06-14T15:06:51;0.75;;;0.38;;
47103;SDS011;32853;52.164;5.400;2023-06-14T15:09:17;1.38;;;0.40;;
47103;SDS011;32853;52.164;5.400;2023-06-14T15:11:42;2.65;;;0.40;;
47103;SDS011;32853;52.164;5.400;2023-06-14T15:14:09;6.80;;;0.55;;
47103;SDS011;32853;52.164;5.400;2023-06-14T15:16:35;6.95;;;0.63;;
47103;SDS011;32853;52.164;5.400;2023-06-14T15:19:00;1.70;;;0.50;;
47103;SDS011;32853;52.164;5.400;2023-06-14T15:21:26;2.03;;;0.57;;
47103;SDS011;32853;52.164;5.400;2023-06-14T15:23:51;3.58;;;0.40;;
47103;SDS011;32853;52.164;5.400;2023-06-14T15:26:18;2.45;;;0.70;;
47103;SDS011;32853;52.164;5.400;2023-06-14T15:28:44;1.25;;;0.57;;
47103;SDS011;32853;52.164;5.400;2023-06-14T15:31:09;2.63;;;0.50;;
47103;SDS011;32853;52.164;5.400;2023-06-14T15:33:34;1.27;;;0.88;;
47103;SDS011;32853;52.164;5.400;2023-06-14T15:36:00;2.05;;;0.50;;
47103;SDS011;32853;52.164;5.400;2023-06-14T15:38:26;1.20;;;0.45;;
47103;SDS011;32853;52.164;5.400;2023-06-14T15:40:51;0.65;;;0.35;;
47103;SDS011;32853;52.164;5.400;2023-06-14T15:43:16;0.82;;;0.40;;
47103;SDS011;32853;52.164;5.400;2023-06-14T15:45:53;2.13;;;0.60;;
47103;SDS011;32853;52.164;5.400;2023-06-14T15:48:18;1.40;;;0.50;;
47103;SDS011;32853;52.164;5.400;2023-06-14T15:50:45;4.10;;;0.68;;
47103;SDS011;32853;52.164;5.400;2023-06-14T15:53:16;5.00;;;0.60;;
47103;SDS011;32853;52.164;5.400;2023-06-14T15:55:49;4.03;;;0.57;;
47103;SDS011;32853;52.164;5.400;2023-06-14T15:58:14;2.70;;;0.47;;
47103;SDS011;32853;52.164;5.400;2023-06-14T16:00:40;2.67;;;0.45;;
47103;SDS011;32853;52.164;5.400;2023-06-14T16:03:05;0.40;;;0.30;;
47103;SDS011;32853;52.164;5.400;2023-06-14T16:05:31;1.08;;;0.57;;
47103;SDS011;32853;52.164;5.400;2023-06-14T16:07:56;1.55;;;0.50;;
47103;SDS011;32853;52.164;5.400;2023-06-14T16:10:21;0.93;;;0.50;;
47103;SDS011;32853;52.164;5.400;2023-06-14T16:12:47;1.70;;;0.55;;
47103;SDS011;32853;52.164;5.400;2023-06-14T16:15:12;2.17;;;0.43;;
47103;SDS011;32853;52.164;5.400;2023-06-14T16:17:41;10.18;;;0.77;;
47103;SDS011;32853;52.164;5.400;2023-06-14T16:20:09;1.08;;;0.50;;
47103;SDS011;32853;52.164;5.400;2023-06-14T16:22:36;1.25;;;0.43;;
47103;SDS011;32853;52.164;5.400;2023-06-14T16:25:01;1.88;;;0.50;;
47103;SDS011;32853;52.164;5.400;2023-06-14T16:27:27;0.70;;;0.38;;
47103;SDS011;32853;52.164;5.400;2023-06-14T16:29:52;1.17;;;0.32;;
47103;SDS011;32853;52.164;5.400;2023-06-14T16:32:32;3.17;;;0.50;;
47103;SDS011;32853;52.164;5.400;2023-06-14T16:34:58;1.15;;;0.50;;